createdAt,value
2023-01-29T00:00:09.219Z,0.00
2023-01-29T00:01:10.163Z,0.00
2023-01-29T00:02:09.281Z,0.00
2023-01-29T00:03:09.269Z,0.00
2023-01-29T00:04:09.185Z,0.00
2023-01-29T00:05:25.915Z,0.00
2023-01-29T00:06:11.577Z,0.00
2023-01-29T00:07:09.101Z,0.00
2023-01-29T00:08:09.147Z,0.00
2023-01-29T00:09:09.177Z,0.00
2023-01-29T00:10:09.177Z,0.00
2023-01-29T00:11:10.043Z,0.00
2023-01-29T00:12:09.110Z,0.00
2023-01-29T00:13:09.063Z,0.00
2023-01-29T00:14:09.029Z,0.00
2023-01-29T00:15:09.060Z,0.00
2023-01-29T00:16:09.960Z,0.00
2023-01-29T00:17:09.026Z,0.00
2023-01-29T00:18:09.015Z,0.00
2023-01-29T00:19:08.997Z,0.00
2023-01-29T00:20:08.939Z,0.00
2023-01-29T00:21:08.957Z,0.00
2023-01-29T00:22:09.909Z,0.00
2023-01-29T00:23:08.922Z,0.00
2023-01-29T00:24:09.047Z,0.00
2023-01-29T00:25:08.903Z,0.00
2023-01-29T00:26:08.925Z,0.00
2023-01-29T00:27:08.925Z,0.00
2023-01-29T00:28:09.786Z,0.00
2023-01-29T00:29:08.863Z,0.00
2023-01-29T00:30:08.849Z,0.00
2023-01-29T00:31:08.936Z,0.00
2023-01-29T00:32:09.065Z,0.00
2023-01-29T00:33:08.914Z,0.00
2023-01-29T00:34:09.825Z,0.00
2023-01-29T00:35:08.775Z,0.00
2023-01-29T00:36:08.782Z,0.00
2023-01-29T00:37:08.733Z,0.00
2023-01-29T00:38:08.810Z,0.00
2023-01-29T00:39:08.719Z,0.00
2023-01-29T00:40:09.639Z,0.00
2023-01-29T00:41:08.714Z,0.00
2023-01-29T00:42:08.817Z,0.00
2023-01-29T00:43:08.682Z,0.00
2023-01-29T00:44:08.739Z,0.00
2023-01-29T00:45:08.647Z,0.00
2023-01-29T00:46:09.560Z,0.00
2023-01-29T00:47:08.601Z,0.00
2023-01-29T00:48:08.606Z,0.00
2023-01-29T00:49:08.780Z,0.00
2023-01-29T00:50:08.611Z,0.00
2023-01-29T00:51:15.025Z,0.00
2023-01-29T00:52:08.689Z,0.00
2023-01-29T00:53:08.591Z,0.00
2023-01-29T00:54:08.518Z,0.00
2023-01-29T00:55:08.568Z,0.00
2023-01-29T00:56:09.457Z,0.00
2023-01-29T00:57:08.513Z,0.00
2023-01-29T00:58:08.466Z,0.00
2023-01-29T00:59:08.469Z,0.00
2023-01-29T01:00:08.498Z,0.00
2023-01-29T01:01:08.476Z,0.00
2023-01-29T01:02:09.424Z,0.00
2023-01-29T01:03:08.506Z,0.00
2023-01-29T01:04:08.483Z,0.00
2023-01-29T01:05:08.398Z,0.00
2023-01-29T01:06:08.402Z,0.00
2023-01-29T01:07:09.294Z,0.00
2023-01-29T01:08:08.335Z,0.00
2023-01-29T01:09:08.386Z,0.00
2023-01-29T01:10:08.343Z,0.00
2023-01-29T01:11:08.329Z,0.00
2023-01-29T01:12:08.317Z,0.00
2023-01-29T01:13:09.204Z,0.00
2023-01-29T01:14:08.293Z,0.00
2023-01-29T01:15:08.285Z,0.00
2023-01-29T01:16:08.288Z,0.00
2023-01-29T01:17:08.326Z,0.00
2023-01-29T01:18:08.237Z,0.00
2023-01-29T01:19:09.129Z,0.00
2023-01-29T01:20:08.177Z,0.00
2023-01-29T01:21:08.173Z,0.00
2023-01-29T01:22:08.174Z,0.00
2023-01-29T01:23:08.151Z,0.00
2023-01-29T01:24:08.212Z,0.00
2023-01-29T01:25:09.051Z,0.00
2023-01-29T01:26:08.146Z,0.00
2023-01-29T01:27:08.133Z,0.00
2023-01-29T01:28:08.112Z,0.00
2023-01-29T01:29:08.068Z,0.00
2023-01-29T01:30:09.081Z,0.00
2023-01-29T01:31:08.378Z,0.00
2023-01-29T01:32:08.122Z,0.00
2023-01-29T01:33:08.039Z,0.00
2023-01-29T01:34:08.053Z,0.00
2023-01-29T01:35:08.001Z,0.00
2023-01-29T01:36:09.022Z,0.00
2023-01-29T01:37:07.999Z,0.00
2023-01-29T01:38:07.982Z,0.00
2023-01-29T01:39:07.957Z,0.00
2023-01-29T01:40:07.999Z,0.00
2023-01-29T01:41:07.919Z,0.00
2023-01-29T01:42:08.851Z,0.00
2023-01-29T01:43:07.896Z,0.00
2023-01-29T01:44:07.913Z,0.00
2023-01-29T01:45:08.068Z,0.00
2023-01-29T07:22:02.081Z,308.00
2023-01-29T07:23:02.104Z,336.00
2023-01-29T07:24:02.055Z,352.00
2023-01-29T07:25:02.043Z,344.00
2023-01-29T07:26:02.038Z,384.00
2023-01-29T07:27:02.999Z,388.00
2023-01-29T07:28:02.025Z,392.00
2023-01-29T07:29:01.979Z,404.00
2023-01-29T07:30:02.015Z,412.00
2023-01-29T07:31:02.002Z,412.00
2023-01-29T07:32:02.023Z,404.00
2023-01-29T07:33:02.915Z,404.00
2023-01-29T07:34:01.941Z,404.00
2023-01-29T07:35:01.920Z,436.00
2023-01-29T07:36:01.923Z,488.00
2023-01-29T07:37:01.879Z,488.00
2023-01-29T07:38:02.798Z,500.00
2023-01-29T07:39:01.887Z,496.00
2023-01-29T07:40:01.850Z,484.00
2023-01-29T07:41:03.156Z,460.00
2023-01-29T07:42:01.838Z,480.00
2023-01-29T07:43:02.738Z,496.00
2023-01-29T07:44:01.821Z,516.00
2023-01-29T07:45:01.803Z,492.00
2023-01-29T07:46:01.880Z,504.00
2023-01-29T07:47:01.785Z,544.00
2023-01-29T07:48:02.690Z,580.00
2023-01-29T07:49:01.751Z,648.00
2023-01-29T07:50:01.769Z,632.00
2023-01-29T07:51:01.743Z,680.00
2023-01-29T07:52:01.710Z,684.00
2023-01-29T07:53:02.617Z,712.00
2023-01-29T07:54:01.665Z,756.00
2023-01-29T07:55:01.678Z,832.00
2023-01-29T07:56:01.660Z,756.00
2023-01-29T07:57:01.635Z,780.00
2023-01-29T07:58:01.660Z,772.00
2023-01-29T07:59:02.535Z,824.00
2023-01-29T08:00:01.644Z,764.00
2023-01-29T08:01:01.620Z,828.00
2023-01-29T08:02:01.635Z,800.00
2023-01-29T08:03:01.586Z,836.00
2023-01-29T08:04:02.544Z,784.00
2023-01-29T08:05:01.564Z,800.00
2023-01-29T08:06:01.511Z,864.00
2023-01-29T08:07:01.555Z,908.00
2023-01-29T08:08:07.049Z,888.00
2023-01-29T08:09:03.915Z,996.00
2023-01-29T08:10:01.468Z,1000.00
2023-01-29T08:11:01.451Z,1088.00
2023-01-29T08:12:01.434Z,1104.00
2023-01-29T08:13:01.479Z,992.00
2023-01-29T08:14:02.401Z,964.00
2023-01-29T08:15:01.421Z,980.00
2023-01-29T08:16:01.388Z,956.00
2023-01-29T08:17:01.394Z,1028.00
2023-01-29T08:18:01.411Z,1188.00
2023-01-29T08:19:01.386Z,1200.00
2023-01-29T08:20:02.287Z,1144.00
2023-01-29T08:21:01.389Z,1268.00
2023-01-29T08:22:01.339Z,1404.00
2023-01-29T08:23:01.321Z,1244.00
2023-01-29T08:25:08.257Z,1228.00
2023-01-29T08:26:02.772Z,1128.00
2023-01-29T08:27:01.273Z,1064.00
2023-01-29T08:28:01.239Z,1192.00
2023-01-29T08:29:01.259Z,1144.00
2023-01-29T08:30:01.232Z,1204.00
2023-01-29T08:31:02.176Z,1248.00
2023-01-29T08:32:01.241Z,1268.00
2023-01-29T08:33:01.191Z,1268.00
2023-01-29T08:34:01.178Z,1308.00
2023-01-29T08:35:01.168Z,1252.00
2023-01-29T08:36:02.156Z,1464.00
2023-01-29T08:37:01.144Z,1564.00
2023-01-29T08:38:01.144Z,1412.00
2023-01-29T08:39:01.178Z,1340.00
2023-01-29T08:40:01.125Z,1480.00
2023-01-29T08:41:02.027Z,1296.00
2023-01-29T08:42:01.064Z,1252.00
2023-01-29T08:43:02.506Z,1352.00
2023-01-29T08:44:01.071Z,1336.00
2023-01-29T08:45:01.055Z,1244.00
2023-01-29T08:46:01.987Z,1500.00
2023-01-29T08:47:01.026Z,1396.00
2023-01-29T08:48:01.014Z,1416.00
2023-01-29T08:49:00.975Z,1488.00
2023-01-29T08:50:01.044Z,1552.00
2023-01-29T08:51:00.967Z,1440.00
2023-01-29T08:52:03.199Z,1392.00
2023-01-29T08:53:00.933Z,1428.00
2023-01-29T08:54:00.954Z,1492.00
2023-01-29T08:55:05.910Z,1104.00
2023-01-29T08:56:05.156Z,1480.00
2023-01-29T08:57:06.118Z,1452.00
2023-01-29T08:58:05.151Z,1388.00
2023-01-29T08:59:05.110Z,1448.00
2023-01-29T09:00:05.114Z,1552.00
2023-01-29T09:01:05.087Z,1652.00
2023-01-29T09:02:05.124Z,1736.00
2023-01-29T09:03:06.007Z,1656.00
2023-01-29T09:04:05.058Z,1800.00
2023-01-29T09:05:05.051Z,1836.00
2023-01-29T09:06:05.039Z,1760.00
2023-01-29T09:07:05.048Z,1736.00
2023-01-29T09:08:05.949Z,1972.00
2023-01-29T09:09:04.991Z,1876.00
2023-01-29T09:10:04.974Z,1992.00
2023-01-29T09:11:05.777Z,2392.00
2023-01-29T09:12:04.955Z,2380.00
2023-01-29T09:13:05.873Z,2516.00
2023-01-29T09:14:04.935Z,2356.00
2023-01-29T09:15:04.927Z,2296.00
2023-01-29T09:16:04.909Z,2284.00
2023-01-29T09:17:04.915Z,2160.00
2023-01-29T09:18:05.828Z,2216.00
2023-01-29T09:19:04.852Z,2144.00
2023-01-29T09:20:04.926Z,2420.00
2023-01-29T09:21:04.849Z,2516.00
2023-01-29T09:22:04.834Z,2664.00
2023-01-29T09:23:04.826Z,2732.00
2023-01-29T09:24:04.790Z,2656.00
2023-01-29T09:25:04.822Z,2612.00
2023-01-29T09:26:04.798Z,2672.00
2023-01-29T09:27:04.760Z,2556.00
2023-01-29T09:28:04.765Z,2692.00
2023-01-29T09:29:05.680Z,2708.00
2023-01-29T09:30:04.738Z,2884.00
2023-01-29T09:31:04.772Z,2828.00
2023-01-29T09:32:04.699Z,2764.00
2023-01-29T09:33:04.671Z,2644.00
2023-01-29T09:34:05.616Z,2816.00
2023-01-29T09:35:04.748Z,2932.00
2023-01-29T09:36:04.639Z,3060.00
2023-01-29T09:37:04.645Z,3224.00
2023-01-29T09:38:04.646Z,3192.00
2023-01-29T09:39:05.538Z,3320.00
2023-01-29T09:40:04.601Z,3304.00
2023-01-29T09:41:04.597Z,3052.00
2023-01-29T09:42:04.584Z,3184.00
2023-01-29T09:43:04.558Z,3296.00
2023-01-29T09:44:05.483Z,3232.00
2023-01-29T09:45:04.557Z,3068.00
2023-01-29T09:46:04.547Z,3268.00
2023-01-29T09:47:04.521Z,3304.00
2023-01-29T09:48:04.485Z,3324.00
2023-01-29T09:49:05.430Z,3696.00
2023-01-29T09:50:04.566Z,3992.00
2023-01-29T09:51:04.455Z,4096.00
2023-01-29T09:52:04.450Z,4256.00
2023-01-29T09:53:04.449Z,4628.00
2023-01-29T09:54:05.360Z,4660.00
2023-01-29T09:55:04.417Z,4724.00
2023-01-29T09:56:04.426Z,5148.00
2023-01-29T09:57:04.387Z,5460.00
2023-01-29T09:58:04.355Z,5624.00
2023-01-29T09:59:04.368Z,5676.00
2023-01-29T10:00:05.287Z,5688.00
2023-01-29T10:01:04.386Z,5660.00
2023-01-29T10:02:04.452Z,6156.00
2023-01-29T10:03:04.304Z,6100.00
2023-01-29T10:04:04.415Z,6948.00
2023-01-29T10:05:05.214Z,6072.00
2023-01-29T10:06:04.296Z,5640.00
2023-01-29T10:07:04.257Z,5560.00
2023-01-29T10:08:04.272Z,5468.00
2023-01-29T10:09:04.246Z,5256.00
2023-01-29T10:10:04.232Z,4716.00
2023-01-29T10:11:05.151Z,4844.00
2023-01-29T10:12:04.197Z,4116.00
2023-01-29T10:13:04.205Z,3732.00
2023-01-29T10:14:04.174Z,4028.00
2023-01-29T10:15:04.198Z,4044.00
2023-01-29T10:16:05.097Z,3844.00
2023-01-29T10:17:04.929Z,4124.00
2023-01-29T10:18:04.155Z,4448.00
2023-01-29T10:19:04.361Z,4684.00
2023-01-29T10:20:04.111Z,4548.00
2023-01-29T10:21:05.039Z,6184.00
2023-01-29T10:22:04.095Z,8544.00
2023-01-29T10:23:04.089Z,8884.00
2023-01-29T10:24:04.057Z,7916.00
2023-01-29T10:25:04.413Z,8964.00
2023-01-29T10:26:04.026Z,10616.00
2023-01-29T10:27:04.957Z,7872.00
2023-01-29T10:28:03.996Z,6364.00
2023-01-29T10:29:03.975Z,8708.00
2023-01-29T10:30:03.953Z,6676.00
2023-01-29T10:31:04.099Z,4876.00
2023-01-29T10:32:04.091Z,7164.00
2023-01-29T10:33:04.852Z,9368.00
2023-01-29T10:34:03.989Z,7908.00
2023-01-29T10:35:03.922Z,7352.00
2023-01-29T10:36:03.896Z,6252.00
2023-01-29T10:37:03.894Z,4976.00
2023-01-29T10:38:03.857Z,5680.00
2023-01-29T10:39:04.784Z,6536.00
2023-01-29T10:40:03.829Z,6684.00
2023-01-29T10:41:03.855Z,7444.00
2023-01-29T10:42:03.823Z,6792.00
2023-01-29T10:43:03.798Z,6864.00
2023-01-29T10:44:04.710Z,7012.00
2023-01-29T10:45:03.785Z,7112.00
2023-01-29T10:46:03.770Z,6748.00
2023-01-29T10:47:03.800Z,7096.00
2023-01-29T10:48:03.728Z,7372.00
2023-01-29T10:49:03.747Z,7576.00
2023-01-29T10:50:04.638Z,7700.00
2023-01-29T10:51:03.700Z,7372.00
2023-01-29T10:52:03.702Z,7372.00
2023-01-29T10:53:03.698Z,7452.00
2023-01-29T10:54:03.689Z,7532.00
2023-01-29T10:55:04.596Z,7744.00
2023-01-29T10:56:10.759Z,7652.00
2023-01-29T10:57:05.120Z,7716.00
2023-01-29T10:58:03.615Z,7988.00
2023-01-29T10:59:03.599Z,8216.00
2023-01-29T11:00:03.576Z,8128.00
2023-01-29T11:01:04.520Z,7904.00
2023-01-29T11:02:03.555Z,7852.00
2023-01-29T11:03:04.266Z,7668.00
2023-01-29T11:04:03.534Z,7680.00
2023-01-29T11:05:03.525Z,7608.00
2023-01-29T11:06:04.457Z,7444.00
2023-01-29T11:07:18.382Z,7280.00
2023-01-29T11:08:03.465Z,7176.00
2023-01-29T11:09:03.469Z,6900.00
2023-01-29T11:10:03.469Z,7032.00
2023-01-29T11:11:04.378Z,7052.00
2023-01-29T11:12:03.417Z,7100.00
2023-01-29T11:13:03.413Z,6784.00
2023-01-29T11:14:03.417Z,6860.00
2023-01-29T11:15:03.407Z,6948.00
2023-01-29T11:16:03.397Z,7332.00
2023-01-29T11:17:04.332Z,7584.00
2023-01-29T11:18:03.366Z,7644.00
2023-01-29T11:19:03.323Z,7700.00
2023-01-29T11:20:03.536Z,7800.00
2023-01-29T11:21:03.526Z,7572.00
2023-01-29T11:22:04.313Z,7276.00
2023-01-29T11:23:03.284Z,7304.00
2023-01-29T11:24:03.276Z,7016.00
2023-01-29T11:25:03.296Z,6748.00
2023-01-29T11:26:03.346Z,6876.00
2023-01-29T11:27:04.226Z,6884.00
2023-01-29T11:28:03.264Z,6924.00
2023-01-29T11:29:03.234Z,6636.00
2023-01-29T11:30:03.222Z,6348.00
2023-01-29T11:31:03.332Z,6124.00
2023-01-29T11:32:03.172Z,5976.00
2023-01-29T11:33:04.149Z,6016.00
2023-01-29T11:34:03.158Z,5716.00
2023-01-29T11:35:03.160Z,5444.00
2023-01-29T11:36:03.115Z,5632.00
2023-01-29T11:37:03.123Z,5756.00
2023-01-29T11:38:04.145Z,5416.00
2023-01-29T11:39:03.081Z,5364.00
2023-01-29T11:40:03.309Z,5376.00
2023-01-29T11:41:03.061Z,5444.00
2023-01-29T11:42:03.141Z,5248.00
2023-01-29T11:43:03.043Z,5188.00
2023-01-29T11:44:03.048Z,4992.00
2023-01-29T11:45:03.026Z,5120.00
2023-01-29T11:46:03.072Z,5256.00
2023-01-29T11:47:02.999Z,5416.00
2023-01-29T11:48:03.009Z,5172.00
2023-01-29T11:49:14.294Z,5096.00
2023-01-29T11:50:04.456Z,5020.00
2023-01-29T11:51:04.875Z,5100.00
2023-01-29T11:52:02.944Z,5116.00
2023-01-29T11:53:02.926Z,5172.00
2023-01-29T11:54:02.912Z,5488.00
2023-01-29T11:55:03.810Z,5628.00
2023-01-29T11:56:02.885Z,5756.00
2023-01-29T11:57:02.871Z,5604.00
2023-01-29T11:58:02.896Z,5392.00
2023-01-29T11:59:02.914Z,5328.00
2023-01-29T12:00:02.818Z,5536.00
2023-01-29T12:01:03.728Z,5432.00
2023-01-29T12:02:02.826Z,5800.00
2023-01-29T12:03:02.792Z,5868.00
2023-01-29T12:04:02.880Z,5528.00
2023-01-29T12:05:02.751Z,5400.00
2023-01-29T12:06:03.721Z,5680.00
2023-01-29T12:07:02.779Z,5720.00
2023-01-29T12:08:02.728Z,5856.00
2023-01-29T12:09:02.746Z,5864.00
2023-01-29T12:10:02.731Z,5508.00
2023-01-29T12:11:03.650Z,5532.00
2023-01-29T12:12:02.705Z,5756.00
2023-01-29T12:13:02.673Z,5812.00
2023-01-29T12:14:02.648Z,5800.00
2023-01-29T12:15:02.656Z,5776.00
2023-01-29T12:16:02.673Z,5880.00
2023-01-29T12:17:03.679Z,5860.00
2023-01-29T12:18:03.345Z,5772.00
2023-01-29T12:19:02.631Z,5508.00
2023-01-29T12:20:02.625Z,5264.00
2023-01-29T12:21:02.649Z,5168.00
2023-01-29T12:22:04.094Z,5060.00
2023-01-29T12:23:02.546Z,4956.00
2023-01-29T12:24:02.543Z,4756.00
2023-01-29T12:25:02.583Z,4600.00
2023-01-29T12:26:02.640Z,4776.00
2023-01-29T12:27:02.529Z,4576.00
2023-01-29T12:28:03.412Z,4296.00
2023-01-29T12:29:02.480Z,4212.00
2023-01-29T12:30:02.436Z,4328.00
2023-01-29T12:31:02.500Z,4284.00
2023-01-29T12:32:02.417Z,4000.00
2023-01-29T12:33:02.461Z,4044.00
2023-01-29T12:34:03.320Z,4216.00
2023-01-29T12:35:02.738Z,4108.00
2023-01-29T12:36:02.384Z,3948.00
2023-01-29T12:37:02.369Z,3796.00
2023-01-29T12:38:02.365Z,4200.00
2023-01-29T12:39:02.365Z,4312.00
2023-01-29T12:40:03.318Z,4020.00
2023-01-29T12:41:02.316Z,3348.00
2023-01-29T12:42:02.283Z,3144.00
2023-01-29T12:43:02.285Z,2928.00
2023-01-29T12:44:02.306Z,3108.00
2023-01-29T12:45:03.186Z,2824.00
2023-01-29T12:46:02.275Z,2784.00
2023-01-29T12:47:02.324Z,2736.00
2023-01-29T12:48:02.226Z,2476.00
2023-01-29T12:49:02.206Z,2372.00
2023-01-29T12:50:02.187Z,2240.00
2023-01-29T12:51:03.103Z,2132.00
2023-01-29T12:52:02.174Z,2032.00
2023-01-29T12:53:02.155Z,2060.00
2023-01-29T12:54:02.155Z,1788.00
2023-01-29T12:55:02.150Z,1800.00
2023-01-29T12:56:03.045Z,2048.00
2023-01-29T12:57:02.122Z,2016.00
2023-01-29T12:58:02.093Z,1796.00
2023-01-29T12:59:02.074Z,1752.00
2023-01-29T13:00:02.167Z,1848.00
2023-01-29T13:01:02.100Z,1716.00
2023-01-29T13:02:03.923Z,1696.00
2023-01-29T13:03:02.009Z,1788.00
2023-01-29T13:04:02.051Z,1740.00
2023-01-29T13:05:02.302Z,1820.00
2023-01-29T13:06:02.155Z,1684.00
2023-01-29T13:07:03.106Z,1844.00
2023-01-29T13:08:04.023Z,2004.00
2023-01-29T13:09:03.637Z,2024.00
2023-01-29T13:10:02.021Z,1896.00
2023-01-29T13:11:03.836Z,1976.00
2023-01-29T13:12:03.092Z,1832.00
2023-01-29T13:13:03.101Z,1760.00
2023-01-29T13:14:02.171Z,1820.00
2023-01-29T13:15:05.734Z,1760.00
2023-01-29T13:16:02.981Z,1868.00
2023-01-29T13:17:02.041Z,1948.00
2023-01-29T13:18:03.040Z,1784.00
2023-01-29T13:19:03.890Z,1708.00
2023-01-29T13:20:01.943Z,1668.00
2023-01-29T13:21:01.868Z,1728.00
2023-01-29T13:22:01.824Z,1872.00
2023-01-29T13:23:02.479Z,1808.00
2023-01-29T13:24:02.917Z,1684.00
2023-01-29T13:25:05.390Z,1628.00
2023-01-29T13:26:05.544Z,1756.00
2023-01-29T13:27:01.993Z,1680.00
2023-01-29T13:28:01.946Z,1852.00
2023-01-29T13:29:04.659Z,1772.00
2023-01-29T13:30:01.762Z,1492.00
2023-01-29T13:31:01.808Z,1544.00
2023-01-29T13:32:01.746Z,1688.00
2023-01-29T13:33:01.803Z,1792.00
2023-01-29T13:34:01.657Z,1760.00
2023-01-29T13:35:02.548Z,1588.00
2023-01-29T13:36:01.620Z,1436.00
2023-01-29T13:37:02.430Z,1448.00
2023-01-29T13:38:01.596Z,1284.00
2023-01-29T13:39:01.596Z,1200.00
2023-01-29T13:40:01.604Z,1220.00
2023-01-29T13:41:03.411Z,1336.00
2023-01-29T13:42:01.530Z,1436.00
2023-01-29T13:43:02.486Z,1316.00
2023-01-29T13:44:01.488Z,1380.00
2023-01-29T13:45:01.527Z,1228.00
2023-01-29T13:46:02.472Z,1160.00
2023-01-29T13:47:01.465Z,1264.00
2023-01-29T13:48:01.435Z,1520.00
2023-01-29T13:49:02.398Z,1740.00
2023-01-29T13:50:01.448Z,1532.00
2023-01-29T13:51:02.340Z,1252.00
2023-01-29T13:52:02.367Z,1368.00
2023-01-29T13:53:01.401Z,1540.00
2023-01-29T13:54:01.414Z,1384.00
2023-01-29T13:55:02.325Z,1312.00
2023-01-29T13:56:01.331Z,1224.00
2023-01-29T13:57:02.252Z,1276.00
2023-01-29T13:58:01.356Z,1260.00
2023-01-29T13:59:01.338Z,1256.00
2023-01-29T14:00:02.281Z,1100.00
2023-01-29T14:01:01.671Z,1060.00
2023-01-29T14:02:02.212Z,1096.00
2023-01-29T14:03:01.289Z,1220.00
2023-01-29T14:04:05.358Z,1080.00
2023-01-29T14:05:01.270Z,1004.00
2023-01-29T14:06:01.242Z,948.00
2023-01-29T14:07:03.075Z,824.00
2023-01-29T14:08:01.215Z,888.00
2023-01-29T14:09:01.173Z,1020.00
2023-01-29T14:10:01.165Z,1132.00
2023-01-29T14:11:01.181Z,1288.00
2023-01-29T14:12:02.065Z,1344.00
2023-01-29T14:13:01.133Z,1408.00
2023-01-29T14:14:01.101Z,1328.00
2023-01-29T14:15:01.093Z,1256.00
2023-01-29T14:16:01.112Z,1300.00
2023-01-29T14:17:02.011Z,1548.00
2023-01-29T14:18:01.064Z,1528.00
2023-01-29T14:19:02.018Z,1168.00
2023-01-29T14:20:01.032Z,1272.00
2023-01-29T14:21:01.048Z,1240.00
2023-01-29T14:22:01.982Z,1168.00
2023-01-29T14:23:01.001Z,1084.00
2023-01-29T14:24:00.970Z,1284.00
2023-01-29T14:25:01.946Z,1132.00
2023-01-29T14:26:01.050Z,1308.00
2023-01-29T14:27:01.887Z,1316.00
2023-01-29T14:28:00.940Z,1140.00
2023-01-29T14:29:00.925Z,1144.00
2023-01-29T14:30:00.974Z,992.00
2023-01-29T14:31:01.027Z,860.00
2023-01-29T14:32:01.810Z,812.00
2023-01-29T14:33:01.838Z,792.00
2023-01-29T14:34:00.862Z,720.00
2023-01-29T14:35:00.894Z,712.00
2023-01-29T14:36:00.830Z,752.00
2023-01-29T14:37:00.851Z,752.00
2023-01-29T14:38:02.648Z,812.00
2023-01-29T14:39:00.825Z,852.00
2023-01-29T14:40:00.796Z,1008.00
2023-01-29T14:41:01.759Z,1044.00
2023-01-29T14:42:00.777Z,976.00
2023-01-29T14:43:01.681Z,980.00
2023-01-29T14:44:00.751Z,980.00
2023-01-29T14:45:00.756Z,872.00
2023-01-29T14:46:00.747Z,948.00
2023-01-29T14:47:00.687Z,892.00
2023-01-29T14:48:01.617Z,964.00
2023-01-29T14:49:01.614Z,828.00
2023-01-29T14:50:00.681Z,848.00
2023-01-29T14:51:00.647Z,792.00
2023-01-29T14:52:00.666Z,736.00
2023-01-29T14:53:00.605Z,720.00
2023-01-29T14:54:01.471Z,712.00
2023-01-29T14:55:01.520Z,580.00
2023-01-29T14:56:00.597Z,588.00
2023-01-29T14:57:00.685Z,564.00
2023-01-29T14:58:00.581Z,592.00
2023-01-29T14:59:01.509Z,552.00
2023-01-29T15:00:00.592Z,648.00
2023-01-29T15:01:01.483Z,432.00
2023-01-29T15:02:00.558Z,448.00
2023-01-29T15:03:02.438Z,464.00
2023-01-29T15:04:01.450Z,552.00
2023-01-29T15:05:00.485Z,464.00
2023-01-29T15:06:00.489Z,360.00
2023-01-29T15:07:01.429Z,332.00
2023-01-29T15:08:01.376Z,308.00
2023-01-29T15:09:00.419Z,268.00
2023-01-29T15:10:19.128Z,292.00
2023-01-29T15:11:02.857Z,268.00
2023-01-29T15:12:00.418Z,212.00
2023-01-29T15:13:01.321Z,252.00
2023-01-29T15:14:01.313Z,216.00
2023-01-29T15:15:00.336Z,220.00
2023-01-29T15:16:00.385Z,264.00
2023-01-29T15:17:00.353Z,208.00
2023-01-29T15:18:00.305Z,168.00
2023-01-29T15:19:01.228Z,152.00
2023-01-29T15:20:01.244Z,188.00
2023-01-29T15:21:00.273Z,156.00
2023-01-29T15:22:00.265Z,132.00
2023-01-29T15:23:00.245Z,164.00
2023-01-29T15:24:00.240Z,160.00
2023-01-29T15:25:01.148Z,144.00
2023-01-29T15:26:00.206Z,176.00
2023-01-29T15:27:00.183Z,152.00
2023-01-29T15:28:00.183Z,144.00
2023-01-29T15:29:04.255Z,140.00
2023-01-29T15:30:00.248Z,132.00
2023-01-29T15:31:01.118Z,136.00
2023-01-29T15:32:00.176Z,188.00
2023-01-29T15:33:00.118Z,152.00
2023-01-29T15:34:00.116Z,108.00
2023-01-29T15:35:00.102Z,136.00
2023-01-29T15:36:08.793Z,116.00
2023-01-29T15:37:01.617Z,96.00
2023-01-29T15:38:01.049Z,104.00
2023-01-29T15:39:00.037Z,84.00
2023-01-29T15:40:00.118Z,88.00
2023-01-29T15:41:00.031Z,88.00
2023-01-29T15:42:00.937Z,92.00
2023-01-29T15:42:59.997Z,84.00
2023-01-29T15:44:00.009Z,76.00
2023-01-29T15:45:00.005Z,68.00
2023-01-29T15:45:59.956Z,60.00
2023-01-29T15:47:00.916Z,48.00
2023-01-29T15:47:59.936Z,60.00
2023-01-29T15:48:59.957Z,52.00
2023-01-29T15:50:00.909Z,44.00
2023-01-29T15:50:59.900Z,60.00
2023-01-29T15:52:00.852Z,52.00
2023-01-29T15:53:00.830Z,36.00
2023-01-29T15:53:59.889Z,40.00
2023-01-29T15:54:59.863Z,32.00
2023-01-29T15:56:00.832Z,24.00
2023-01-29T15:56:59.908Z,28.00
2023-01-29T15:58:00.765Z,16.00
2023-01-29T15:58:59.805Z,20.00
2023-01-29T15:59:59.785Z,16.00
2023-01-29T16:00:59.785Z,16.00
2023-01-29T16:02:00.789Z,16.00
2023-01-29T16:02:59.770Z,12.00
2023-01-29T16:04:00.669Z,8.00
2023-01-29T16:04:59.734Z,8.00
2023-01-29T16:05:59.703Z,8.00
2023-01-29T16:06:59.696Z,4.00
2023-01-29T16:07:59.682Z,4.00
2023-01-29T16:09:00.522Z,8.00
2023-01-29T16:10:00.649Z,4.00
2023-01-29T16:11:00.603Z,4.00
2023-01-29T16:11:59.623Z,4.00
2023-01-29T16:12:59.628Z,0.00
2023-01-29T16:13:59.696Z,4.00
2023-01-29T16:15:00.536Z,4.00
2023-01-29T16:16:00.727Z,0.00
2023-01-29T16:16:59.625Z,0.00
2023-01-29T16:18:00.360Z,0.00
2023-01-29T16:19:01.251Z,0.00
2023-01-29T16:19:59.710Z,0.00
2023-01-29T16:21:00.532Z,0.00
2023-01-29T16:21:59.500Z,0.00
2023-01-29T16:22:59.518Z,0.00
2023-01-29T16:23:59.507Z,0.00
2023-01-29T16:24:59.475Z,0.00
2023-01-29T16:25:59.451Z,0.00
2023-01-29T16:27:00.379Z,0.00
2023-01-29T16:27:59.434Z,0.00
2023-01-29T16:28:59.401Z,0.00
2023-01-29T16:29:59.413Z,0.00
2023-01-29T16:31:01.845Z,0.00
2023-01-29T16:31:59.424Z,0.00
2023-01-29T16:33:00.333Z,0.00
2023-01-29T16:33:59.407Z,0.00
2023-01-29T16:34:59.325Z,0.00
2023-01-29T16:35:59.323Z,0.00
2023-01-29T16:36:59.316Z,0.00
2023-01-29T16:38:00.240Z,0.00
2023-01-29T16:39:00.234Z,0.00
2023-01-29T16:39:59.344Z,0.00
2023-01-29T16:40:59.264Z,0.00
2023-01-29T16:41:59.238Z,0.00
2023-01-29T16:42:59.234Z,0.00
2023-01-29T16:44:00.180Z,0.00
2023-01-29T16:45:00.159Z,0.00
2023-01-29T16:45:59.187Z,0.00
2023-01-29T16:46:59.178Z,0.00
2023-01-29T16:47:59.171Z,0.00
2023-01-29T16:49:00.118Z,0.00
2023-01-29T16:49:59.240Z,0.00
2023-01-29T16:51:00.107Z,0.00
2023-01-29T16:52:00.087Z,0.00
2023-01-29T16:52:59.097Z,0.00
2023-01-29T16:54:00.071Z,0.00
2023-01-29T16:54:59.090Z,0.00
2023-01-29T16:55:59.060Z,0.00
2023-01-29T16:56:59.050Z,0.00
2023-01-29T16:57:59.026Z,0.00
2023-01-29T16:58:59.984Z,0.00
2023-01-29T16:59:59.978Z,0.00
2023-01-29T17:00:59.016Z,0.00
2023-01-29T17:01:58.987Z,0.00
2023-01-29T17:02:59.837Z,0.00
2023-01-29T17:03:59.907Z,0.00
2023-01-29T17:04:58.973Z,0.00
2023-01-29T17:05:59.061Z,0.00
2023-01-29T17:06:58.954Z,0.00
2023-01-29T17:07:58.926Z,0.00
2023-01-29T17:08:58.898Z,0.00
2023-01-29T17:09:59.890Z,0.00
2023-01-29T17:10:58.883Z,0.00
2023-01-29T17:11:59.816Z,0.00
2023-01-29T17:12:58.883Z,0.00
2023-01-29T17:13:58.844Z,0.00
2023-01-29T17:14:59.785Z,0.00
2023-01-29T17:15:58.880Z,0.00
2023-01-29T17:16:58.811Z,0.00
2023-01-29T17:17:59.732Z,0.00
2023-01-29T17:18:59.660Z,0.00
2023-01-29T17:19:58.792Z,0.00
2023-01-29T17:20:59.686Z,0.00
2023-01-29T17:21:58.733Z,0.00
2023-01-29T17:23:00.387Z,0.00
2023-01-29T17:23:58.739Z,0.00
2023-01-29T17:24:58.705Z,0.00
2023-01-29T17:25:59.651Z,0.00
2023-01-29T17:26:58.700Z,0.00
2023-01-29T17:27:59.633Z,0.00
2023-01-29T17:28:58.641Z,0.00
2023-01-29T17:29:58.632Z,0.00
2023-01-29T17:31:06.233Z,0.00
2023-01-29T17:32:01.126Z,0.00
2023-01-29T17:32:58.604Z,0.00
2023-01-29T17:33:58.572Z,0.00
2023-01-29T17:35:00.490Z,0.00
2023-01-29T17:35:58.559Z,0.00
2023-01-29T17:36:59.559Z,0.00
2023-01-29T17:37:59.665Z,0.00
2023-01-29T17:38:58.581Z,0.00
2023-01-29T17:39:58.561Z,0.00
2023-01-29T17:40:58.512Z,0.00
2023-01-29T17:41:59.455Z,0.00
2023-01-29T17:42:59.399Z,0.00
2023-01-29T17:43:58.466Z,0.00
2023-01-29T17:44:58.461Z,0.00
2023-01-29T17:45:58.502Z,0.00
2023-01-29T17:46:58.473Z,0.00
2023-01-29T17:48:00.293Z,0.00
2023-01-29T17:48:58.411Z,0.00
2023-01-29T17:49:58.416Z,0.00
2023-01-29T17:50:59.225Z,0.00
2023-01-29T17:51:59.318Z,0.00
2023-01-29T17:52:59.287Z,0.00
2023-01-29T17:53:58.351Z,0.00
2023-01-29T17:54:59.319Z,0.00
2023-01-29T17:55:58.296Z,0.00
2023-01-29T17:56:58.293Z,0.00
2023-01-29T17:57:58.300Z,0.00
2023-01-29T17:58:59.224Z,0.00
2023-01-29T17:59:58.246Z,0.00
2023-01-29T18:00:58.262Z,0.00
2023-01-29T18:01:58.292Z,0.00
2023-01-29T18:02:58.224Z,0.00
2023-01-29T18:03:59.206Z,0.00
2023-01-29T18:04:58.203Z,0.00
2023-01-29T18:05:58.189Z,0.00
2023-01-29T18:06:58.191Z,0.00
2023-01-29T18:07:58.146Z,0.00
2023-01-29T18:08:58.134Z,0.00